Time;durP1;ratioP1;P1;durP2;ratioP2;P2;SDS_P1;SDS_P2;PMS_P1;PMS_P2;Temp;Humidity;BMP_temperature;BMP_pressure;BME280_temperature;BME280_humidity;BME280_pressure;Samples;Min_cycle;Max_cycle;Signal;HPM_P1;HPM_P2
2023/05/05 00:00:35;;;;;;;5.47;2.15;;;17.60;90.10;;;;;;5011190;28;20390;-49
2023/05/05 00:03:01;;;;;;;5.10;2.63;;;17.70;90.10;;;;;;5011691;28;20087;-51
2023/05/05 00:05:26;;;;;;;3.70;2.35;;;17.60;90.10;;;;;;5011573;28;20065;-51
2023/05/05 00:07:53;;;;;;;3.85;2.20;;;17.70;90.10;;;;;;5011485;28;20029;-48
2023/05/05 00:10:18;;;;;;;5.40;2.60;;;17.60;90.20;;;;;;5011083;28;20030;-50
2023/05/05 00:12:44;;;;;;;2.90;2.28;;;17.50;90.30;;;;;;5011345;28;20030;-51
2023/05/05 00:15:10;;;;;;;4.55;2.55;;;17.50;90.40;;;;;;5011600;28;20466;-50
2023/05/05 00:17:35;;;;;;;4.10;2.53;;;17.50;90.70;;;;;;5011213;28;20061;-48
2023/05/05 00:20:01;;;;;;;4.03;2.30;;;17.50;90.70;;;;;;5011168;28;20033;-52
2023/05/05 00:22:27;;;;;;;4.53;2.42;;;17.50;90.70;;;;;;5011110;28;20034;-50
2023/05/05 00:24:53;;;;;;;3.10;2.10;;;17.50;90.70;;;;;;5011194;28;20095;-51
2023/05/05 00:27:19;;;;;;;4.15;2.45;;;17.50;90.90;;;;;;5011094;28;20030;-48
2023/05/05 00:29:44;;;;;;;3.85;2.30;;;17.50;91.20;;;;;;5011244;28;20033;-48
2023/05/05 00:32:10;;;;;;;4.93;2.70;;;17.40;91.30;;;;;;5009284;28;20124;-49
2023/05/05 00:34:36;;;;;;;4.07;2.33;;;17.40;91.30;;;;;;5011114;28;20030;-48
2023/05/05 00:37:02;;;;;;;2.95;2.17;;;17.40;91.30;;;;;;5011169;28;20025;-48
2023/05/05 00:39:28;;;;;;;4.85;1.98;;;17.40;91.40;;;;;;5009747;28;20030;-48
2023/05/05 00:41:54;;;;;;;5.13;2.42;;;17.30;91.50;;;;;;5009259;28;20033;-52
2023/05/05 00:44:35;;;;;;;4.80;2.25;;;17.30;92.30;;;;;;5009835;28;20378;-49
2023/05/05 00:47:02;;;;;;;4.28;2.35;;;17.30;92.40;;;;;;5009714;28;20041;-50
2023/05/05 00:49:28;;;;;;;4.50;2.20;;;17.20;92.10;;;;;;5011002;28;20033;-50
2023/05/05 00:51:55;;;;;;;3.30;2.10;;;17.20;92.50;;;;;;5011087;28;20025;-53
2023/05/05 00:54:21;;;;;;;4.22;2.50;;;17.20;92.50;;;;;;5017506;28;20096;-50
2023/05/05 00:56:49;;;;;;;3.90;2.28;;;17.10;92.70;;;;;;5016319;28;20221;-51
2023/05/05 00:59:16;;;;;;;5.07;2.22;;;17.10;92.80;;;;;;5017756;28;20030;-47
2023/05/05 01:01:42;;;;;;;3.47;2.20;;;17.00;92.90;;;;;;5015619;28;20042;-48
2023/05/05 01:04:08;;;;;;;5.57;2.90;;;17.00;93.10;;;;;;5017488;28;20029;-52
2023/05/05 01:06:46;;;;;;;3.33;2.30;;;17.00;93.30;;;;;;5016166;28;20414;-47
2023/05/05 01:09:31;;;;;;;5.78;2.75;;;16.90;93.40;;;;;;5017424;28;20332;-52
2023/05/05 01:12:13;;;;;;;3.67;2.30;;;16.90;93.80;;;;;;5015675;28;20120;-49
2023/05/05 01:14:51;;;;;;;3.92;2.60;;;16.80;93.90;;;;;;5017508;28;20471;-48
2023/05/05 01:17:20;;;;;;;3.75;2.28;;;16.80;94.20;;;;;;5016170;28;20034;-49
2023/05/05 01:20:22;;;;;;;4.97;2.53;;;16.80;94.40;;;;;;5017622;28;20479;-50
2023/05/05 01:22:58;;;;;;;6.03;2.97;;;16.80;94.60;;;;;;5016543;28;20030;-49
2023/05/05 01:25:36;;;;;;;5.35;2.60;;;16.70;94.70;;;;;;5016304;28;20034;-50
2023/05/05 01:28:46;;;;;;;5.00;2.80;;;16.70;94.90;;;;;;5016061;28;20033;-49
2023/05/05 01:31:43;;;;;;;4.90;2.75;;;16.70;95.00;;;;;;5005449;28;20042;-48
2023/05/05 01:34:13;;;;;;;4.22;2.75;;;16.60;95.20;;;;;;5017251;28;20041;-47
2023/05/05 01:36:43;;;;;;;3.13;2.30;;;16.60;95.50;;;;;;5017351;28;20029;-52
2023/05/05 01:39:15;;;;;;;4.70;2.80;;;16.50;95.70;;;;;;5015839;28;20034;-47
2023/05/05 01:41:50;;;;;;;6.20;3.00;;;16.50;96.00;;;;;;5016726;28;20485;-52
2023/05/05 01:44:17;;;;;;;5.43;3.03;;;16.50;96.50;;;;;;5015608;28;20029;-47
2023/05/05 01:46:46;;;;;;;;;;;16.40;96.60;;;;;;5018055;28;20060;-47
2023/05/05 01:49:14;;;;;;;6.05;2.45;;;16.40;96.90;;;;;;5015782;28;19913;-48
2023/05/05 01:51:41;;;;;;;6.35;2.78;;;16.30;97.40;;;;;;5016474;28;20026;-49
2023/05/05 01:54:08;;;;;;;5.18;2.72;;;16.20;97.90;;;;;;5015764;28;20034;-50
2023/05/05 01:56:37;;;;;;;6.32;2.70;;;16.20;98.20;;;;;;5016983;28;20105;-49
2023/05/05 01:59:05;;;;;;;6.18;3.15;;;16.20;98.90;;;;;;5015567;28;20033;-50
2023/05/05 02:01:36;;;;;;;5.67;3.13;;;16.20;99.40;;;;;;5016628;28;20477;-50
2023/05/05 02:04:03;;;;;;;4.68;2.95;;;16.00;99.70;;;;;;5014165;28;20053;-47
2023/05/05 02:06:31;;;;;;;7.25;2.92;;;15.90;99.90;;;;;;5013779;28;20040;-46
2023/05/05 02:08:57;;;;;;;5.00;2.90;;;15.90;99.90;;;;;;5013998;28;20088;-48
2023/05/05 02:11:25;;;;;;;4.90;3.33;;;15.80;99.90;;;;;;5013183;28;20111;-48
2023/05/05 02:13:53;;;;;;;4.88;2.85;;;15.70;99.90;;;;;;5012301;28;20034;-47
2023/05/05 02:16:22;;;;;;;4.88;2.70;;;15.60;99.90;;;;;;5012572;28;20030;-48
2023/05/05 02:18:49;;;;;;;5.82;3.42;;;15.50;99.90;;;;;;5012223;28;20045;-48
2023/05/05 02:21:16;;;;;;;5.78;3.03;;;15.60;99.90;;;;;;5013346;28;20418;-48
2023/05/05 02:23:50;;;;;;;7.03;3.90;;;15.50;99.90;;;;;;5013400;28;20034;-46
2023/05/05 02:26:19;;;;;;;5.47;3.50;;;15.50;99.90;;;;;;5013446;28;20605;-49
2023/05/05 02:28:56;;;;;;;6.07;3.60;;;15.50;99.90;;;;;;5013679;28;20030;-46
2023/05/05 02:31:24;;;;;;;5.75;3.75;;;15.50;99.90;;;;;;5011638;28;20056;-46
2023/05/05 02:33:52;;;;;;;7.13;3.65;;;15.50;99.90;;;;;;5011991;28;20034;-46
2023/05/05 02:36:24;;;;;;;7.90;3.97;;;15.50;99.90;;;;;;5011919;28;20025;-48
2023/05/05 02:38:59;;;;;;;7.38;3.28;;;15.50;99.90;;;;;;5011815;28;20033;-45
2023/05/05 02:41:29;;;;;;;6.07;3.55;;;15.50;99.90;;;;;;5011441;28;20036;-45
2023/05/05 02:43:58;;;;;;;6.65;3.95;;;15.50;99.90;;;;;;5011640;28;20524;-46
2023/05/05 02:46:27;;;;;;;7.47;3.25;;;15.50;99.90;;;;;;5011805;28;20034;-46
2023/05/05 02:48:52;;;;;;;7.80;4.30;;;15.50;99.90;;;;;;5012788;28;20030;-45
2023/05/05 02:51:18;;;;;;;6.45;4.10;;;15.50;99.90;;;;;;5011196;28;20454;-48
2023/05/05 02:53:44;;;;;;;6.93;3.88;;;15.50;99.90;;;;;;5011611;28;20117;-46
2023/05/05 02:56:26;;;;;;;8.30;4.13;;;15.60;99.90;;;;;;5011568;28;20026;-45
2023/05/05 02:59:23;;;;;;;7.97;4.20;;;15.50;99.90;;;;;;5011630;28;20037;-45
2023/05/05 03:02:05;;;;;;;6.65;3.70;;;15.50;99.90;;;;;;5010956;28;20041;-46
2023/05/05 03:04:56;;;;;;;6.22;3.70;;;15.40;99.90;;;;;;5011435;28;20029;-47
2023/05/05 03:07:29;;;;;;;5.57;3.35;;;15.30;99.90;;;;;;5011209;28;20451;-48
2023/05/05 03:10:10;;;;;;;8.48;4.30;;;15.30;99.90;;;;;;5012529;28;20030;-46
2023/05/05 03:13:01;;;;;;;10.52;4.03;;;15.10;99.90;;;;;;5011009;28;20025;-46
2023/05/05 03:15:43;;;;;;;6.43;3.88;;;15.00;99.90;;;;;;5011037;28;20453;-46
2023/05/05 03:18:10;;;;;;;6.13;4.40;;;15.00;99.90;;;;;;5011068;28;20030;-46
2023/05/05 03:20:39;;;;;;;6.68;3.85;;;14.90;99.90;;;;;;5010610;28;20524;-49
2023/05/05 03:23:08;;;;;;;5.50;3.83;;;15.00;99.90;;;;;;5011399;28;20088;-46
2023/05/05 03:25:42;;;;;;;6.70;3.83;;;14.90;99.90;;;;;;5011025;28;20433;-50
2023/05/05 03:28:09;;;;;;;7.88;4.20;;;14.90;99.90;;;;;;5010985;28;20400;-47
2023/05/05 03:30:35;;;;;;;6.00;3.60;;;14.80;99.90;;;;;;5011787;28;20108;-48
2023/05/05 03:33:01;;;;;;;6.15;3.60;;;14.70;99.90;;;;;;5011156;28;20030;-46
2023/05/05 03:35:27;;;;;;;7.25;4.10;;;14.60;99.90;;;;;;5010883;28;20034;-47
2023/05/05 03:37:54;;;;;;;7.50;3.75;;;14.60;99.90;;;;;;5010775;28;20026;-46
2023/05/05 03:40:21;;;;;;;6.85;4.32;;;14.60;99.90;;;;;;5010413;28;20398;-46
2023/05/05 03:42:47;;;;;;;7.10;4.38;;;14.50;99.90;;;;;;5010779;28;20052;-48
2023/05/05 03:45:13;;;;;;;7.28;4.30;;;14.40;99.90;;;;;;5010563;28;20522;-47
2023/05/05 03:47:39;;;;;;;8.27;4.50;;;14.40;99.90;;;;;;5010538;28;20402;-46
2023/05/05 03:50:06;;;;;;;10.20;4.95;;;14.30;99.90;;;;;;5010400;28;20290;-46
2023/05/05 03:52:32;;;;;;;8.98;4.90;;;14.30;99.90;;;;;;5010410;28;20164;-46
2023/05/05 03:54:59;;;;;;;7.32;4.20;;;14.30;99.90;;;;;;5010507;28;20033;-46
2023/05/05 03:57:25;;;;;;;6.63;4.18;;;14.10;99.90;;;;;;5011822;28;20021;-46
2023/05/05 03:59:52;;;;;;;6.68;4.10;;;13.90;99.90;;;;;;5011765;28;20030;-46
2023/05/05 04:02:18;;;;;;;7.65;4.40;;;13.80;99.90;;;;;;5009963;28;20030;-47
2023/05/05 04:04:45;;;;;;;9.60;4.57;;;13.80;99.90;;;;;;5010237;28;20072;-47
2023/05/05 04:07:11;;;;;;;7.82;4.50;;;13.80;99.90;;;;;;5010606;28;20092;-48
2023/05/05 04:09:43;;;;;;;13.95;6.32;;;13.80;99.90;;;;;;5010397;28;20104;-47
2023/05/05 04:12:10;;;;;;;10.02;5.28;;;13.80;99.90;;;;;;5009829;28;20026;-48
2023/05/05 04:14:36;;;;;;;8.50;4.40;;;13.70;99.90;;;;;;5010375;28;20556;-46
2023/05/05 04:17:02;;;;;;;8.23;4.35;;;13.70;99.90;;;;;;5010450;28;20030;-47
2023/05/05 04:19:31;;;;;;;7.97;4.63;;;13.70;99.90;;;;;;5010643;28;20451;-49
2023/05/05 04:21:58;;;;;;;8.95;4.68;;;13.70;99.90;;;;;;5011167;28;20041;-49
2023/05/05 04:24:24;;;;;;;11.75;5.28;;;13.70;99.90;;;;;;5010531;28;20034;-46
2023/05/05 04:26:52;;;;;;;8.65;4.88;;;13.70;99.90;;;;;;5009522;28;20034;-46
2023/05/05 04:29:19;;;;;;;9.63;5.05;;;13.80;99.90;;;;;;5010068;28;20062;-46
2023/05/05 04:31:44;;;;;;;8.35;5.03;;;13.80;99.90;;;;;;5010829;28;20053;-46
2023/05/05 04:34:10;;;;;;;7.85;4.57;;;13.90;99.90;;;;;;5010084;28;20033;-49
2023/05/05 04:36:37;;;;;;;10.20;5.43;;;13.80;99.90;;;;;;5010037;28;20121;-50
2023/05/05 04:39:05;;;;;;;9.50;4.72;;;13.80;99.90;;;;;;5009993;28;20061;-46
2023/05/05 04:41:31;;;;;;;8.35;4.35;;;13.80;99.90;;;;;;5009207;28;20037;-48
2023/05/05 04:43:58;;;;;;;12.45;4.72;;;13.70;99.90;;;;;;4993484;28;20033;-48
2023/05/05 04:46:24;;;;;;;10.13;5.22;;;13.70;99.90;;;;;;5009955;28;20041;-50
2023/05/05 04:48:50;;;;;;;8.45;5.38;;;13.70;99.90;;;;;;5009845;28;20029;-46
2023/05/05 04:51:16;;;;;;;9.10;5.70;;;13.80;99.90;;;;;;5009413;28;20129;-50
2023/05/05 04:53:42;;;;;;;9.02;5.07;;;13.80;99.90;;;;;;5009698;28;20045;-47
2023/05/05 04:56:08;;;;;;;8.93;5.35;;;13.90;99.90;;;;;;5010850;28;20101;-50
2023/05/05 04:58:34;;;;;;;9.63;4.68;;;13.90;99.90;;;;;;5009660;28;20033;-49
2023/05/05 05:01:00;;;;;;;9.88;5.28;;;13.90;99.90;;;;;;5009250;28;20030;-48
2023/05/05 05:03:26;;;;;;;8.63;5.43;;;13.90;99.90;;;;;;5009602;28;20118;-51
2023/05/05 05:05:52;;;;;;;10.68;6.03;;;13.80;99.90;;;;;;5009724;28;20056;-48
2023/05/05 05:08:18;;;;;;;8.80;4.93;;;13.80;99.90;;;;;;5009485;28;20025;-50
2023/05/05 05:10:44;;;;;;;9.45;5.18;;;13.90;99.90;;;;;;5008777;28;20040;-49
2023/05/05 05:13:10;;;;;;;8.88;5.07;;;13.90;99.90;;;;;;5009877;28;20022;-51
2023/05/05 05:15:39;;;;;;;12.13;5.68;;;13.90;99.90;;;;;;5010805;28;20030;-48
2023/05/05 05:18:05;;;;;;;8.63;5.18;;;13.90;99.90;;;;;;5009507;28;20030;-50
2023/05/05 05:20:32;;;;;;;13.32;5.55;;;14.00;99.90;;;;;;5009190;28;20310;-48
2023/05/05 05:23:00;;;;;;;9.77;5.35;;;14.10;99.90;;;;;;5009252;28;20117;-48
2023/05/05 05:25:27;;;;;;;;;;;14.20;99.90;;;;;;5009921;28;20025;-47
2023/05/05 05:27:53;;;;;;;8.43;5.10;;;14.20;99.90;;;;;;5009294;28;19913;-47
2023/05/05 05:30:19;;;;;;;12.00;5.95;;;14.30;99.90;;;;;;5010478;28;20080;-47
2023/05/05 05:32:44;;;;;;;12.32;5.90;;;14.40;99.90;;;;;;5010532;28;20030;-48
2023/05/05 05:35:10;;;;;;;8.73;5.78;;;14.40;99.90;;;;;;5010636;28;20367;-47
2023/05/05 05:37:36;;;;;;;12.15;6.55;;;14.60;99.90;;;;;;5009392;28;20552;-51
2023/05/05 05:40:06;;;;;;;10.73;5.47;;;14.60;99.90;;;;;;5012458;28;20026;-50
2023/05/05 05:42:33;;;;;;;11.25;6.00;;;14.70;99.90;;;;;;5012566;28;20033;-47
2023/05/05 05:44:59;;;;;;;12.95;7.15;;;14.80;99.90;;;;;;5012607;28;20022;-46
2023/05/05 05:47:25;;;;;;;13.48;7.30;;;15.00;99.90;;;;;;5012789;28;20029;-53
2023/05/05 05:49:51;;;;;;;11.70;6.68;;;15.10;99.90;;;;;;5012491;28;20030;-46
2023/05/05 05:52:18;;;;;;;12.75;6.97;;;15.10;99.90;;;;;;5011890;28;20026;-49
2023/05/05 05:54:44;;;;;;;14.30;7.60;;;15.30;99.90;;;;;;5013687;28;20029;-51
2023/05/05 05:57:10;;;;;;;16.02;8.15;;;15.40;99.90;;;;;;5012534;28;20029;-48
2023/05/05 05:59:36;;;;;;;12.75;7.72;;;15.50;99.90;;;;;;5012444;28;20116;-48
2023/05/05 06:02:03;;;;;;;13.65;7.32;;;15.50;99.90;;;;;;5011841;28;20030;-49
2023/05/05 06:04:30;;;;;;;12.00;7.45;;;15.60;99.90;;;;;;5012208;28;20034;-49
2023/05/05 06:06:57;;;;;;;12.70;7.47;;;15.80;99.90;;;;;;5012032;28;20030;-48
2023/05/05 06:09:24;;;;;;;14.63;8.45;;;16.00;99.90;;;;;;5011975;28;20505;-48
2023/05/05 06:11:50;;;;;;;16.08;8.15;;;16.20;99.90;;;;;;5011680;28;20030;-48
2023/05/05 06:14:16;;;;;;;14.75;7.07;;;16.40;99.90;;;;;;5012146;28;20320;-51
2023/05/05 06:16:43;;;;;;;14.30;7.85;;;16.40;99.90;;;;;;5012183;28;20030;-48
2023/05/05 06:19:15;;;;;;;12.07;7.90;;;16.50;99.90;;;;;;5012271;28;20556;-50
2023/05/05 06:21:41;;;;;;;12.85;7.60;;;16.80;99.90;;;;;;5012797;28;20038;-50
2023/05/05 06:24:07;;;;;;;13.30;7.30;;;16.90;99.90;;;;;;5011854;28;20056;-48
2023/05/05 06:26:34;;;;;;;12.27;7.70;;;17.00;99.90;;;;;;5011868;28;20030;-51
2023/05/05 06:29:00;;;;;;;12.75;7.50;;;17.10;99.90;;;;;;5013178;28;20141;-50
2023/05/05 06:31:25;;;;;;;12.35;8.07;;;17.30;99.90;;;;;;5012775;28;20034;-47
2023/05/05 06:33:51;;;;;;;13.85;7.53;;;17.40;99.90;;;;;;5013066;28;20077;-47
2023/05/05 06:36:17;;;;;;;14.77;7.88;;;17.50;99.90;;;;;;5013115;28;20037;-49
2023/05/05 06:38:42;;;;;;;13.13;7.85;;;17.70;99.90;;;;;;5013028;28;20030;-48
2023/05/05 06:41:08;;;;;;;13.98;8.15;;;17.70;99.90;;;;;;5012736;28;20030;-49
2023/05/05 06:43:34;;;;;;;14.18;6.88;;;18.00;99.90;;;;;;5013235;28;20041;-48
2023/05/05 06:46:05;;;;;;;13.82;7.72;;;18.00;99.90;;;;;;5012170;28;20398;-48
2023/05/05 06:48:31;;;;;;;9.35;5.78;;;18.20;99.90;;;;;;5013034;28;20026;-46
2023/05/05 06:50:56;;;;;;;12.45;6.38;;;18.40;99.90;;;;;;5012324;28;20044;-47
2023/05/05 06:53:22;;;;;;;10.60;6.60;;;18.50;99.90;;;;;;5012962;28;20422;-51
2023/05/05 06:55:48;;;;;;;8.93;5.47;;;18.60;99.90;;;;;;5013177;28;20026;-47
2023/05/05 06:58:14;;;;;;;9.50;5.85;;;18.70;99.90;;;;;;5012867;28;20385;-49
2023/05/05 07:00:40;;;;;;;8.55;4.90;;;19.00;99.90;;;;;;5012500;28;20096;-50
2023/05/05 07:03:05;;;;;;;7.22;4.88;;;19.40;99.90;;;;;;5012567;28;20033;-49
2023/05/05 07:05:31;;;;;;;8.85;4.85;;;19.80;99.90;;;;;;5012799;28;20422;-47
2023/05/05 07:07:57;;;;;;;8.48;5.03;;;20.10;99.90;;;;;;5012463;28;20499;-50
2023/05/05 07:10:24;;;;;;;8.23;4.68;;;20.10;99.90;;;;;;5012159;28;20105;-48
2023/05/05 07:12:50;;;;;;;7.40;4.53;;;20.00;99.90;;;;;;5012594;28;20470;-48
2023/05/05 07:15:17;;;;;;;7.55;4.35;;;19.80;99.90;;;;;;5012637;28;20474;-49
2023/05/05 07:17:43;;;;;;;10.77;5.75;;;19.40;99.90;;;;;;5012411;28;20442;-50
2023/05/05 07:20:09;;;;;;;10.07;6.35;;;19.40;99.90;;;;;;5012298;28;20034;-49
2023/05/05 07:22:35;;;;;;;7.60;4.88;;;19.30;99.90;;;;;;5011968;28;20026;-50
2023/05/05 07:25:03;;;;;;;6.70;4.28;;;19.30;99.90;;;;;;5012479;28;20131;-51
2023/05/05 07:27:30;;;;;;;7.93;4.65;;;19.20;99.90;;;;;;5012272;28;20032;-49
2023/05/05 07:29:56;;;;;;;7.70;4.70;;;19.20;99.90;;;;;;5012101;28;20071;-48
2023/05/05 07:32:22;;;;;;;6.65;4.30;;;19.00;99.90;;;;;;5011527;28;20508;-51
2023/05/05 07:34:47;;;;;;;6.72;4.07;;;19.00;99.90;;;;;;5012082;28;20060;-52
2023/05/05 07:37:13;;;;;;;5.78;3.97;;;19.30;99.90;;;;;;5011909;28;20030;-49
2023/05/05 07:39:39;;;;;;;5.57;3.40;;;19.60;99.90;;;;;;5010626;28;20044;-48
2023/05/05 07:42:06;;;;;;;6.85;4.30;;;19.70;99.90;;;;;;5011381;28;20061;-47
2023/05/05 07:44:32;;;;;;;6.22;3.90;;;19.70;99.90;;;;;;5011764;28;20116;-47
2023/05/05 07:46:57;;;;;;;7.10;3.88;;;19.70;99.90;;;;;;5010508;28;20124;-48
2023/05/05 07:49:23;;;;;;;8.00;4.05;;;19.70;99.90;;;;;;5012061;28;20073;-50
2023/05/05 07:51:49;;;;;;;6.50;4.10;;;19.70;99.90;;;;;;5011351;28;20025;-49
2023/05/05 07:54:16;;;;;;;8.65;4.30;;;19.60;99.90;;;;;;5011850;28;20478;-47
2023/05/05 07:56:42;;;;;;;6.95;4.32;;;19.60;99.90;;;;;;5011783;28;20039;-47
2023/05/05 07:59:08;;;;;;;8.80;4.25;;;19.70;99.90;;;;;;5011659;28;20052;-47
2023/05/05 08:01:34;;;;;;;6.68;4.15;;;19.50;99.90;;;;;;5010313;28;20117;-47
2023/05/05 08:04:00;;;;;;;7.65;4.50;;;19.50;99.90;;;;;;5011526;28;20130;-49
2023/05/05 08:06:28;;;;;;;7.78;4.75;;;19.60;99.90;;;;;;5011340;28;20034;-50
2023/05/05 08:08:54;;;;;;;8.00;4.45;;;19.60;99.90;;;;;;5011806;28;20026;-47
2023/05/05 08:11:20;;;;;;;6.00;3.53;;;19.50;99.90;;;;;;5011058;28;20502;-48
2023/05/05 08:13:46;;;;;;;8.55;3.83;;;19.60;99.90;;;;;;5011244;28;20395;-46
2023/05/05 08:16:12;;;;;;;7.00;4.13;;;19.70;99.90;;;;;;5011397;28;20034;-46
2023/05/05 08:18:38;;;;;;;7.13;4.18;;;19.90;99.90;;;;;;5011218;28;20062;-48
2023/05/05 08:21:05;;;;;;;5.30;3.35;;;20.00;99.90;;;;;;5010720;28;20034;-47
2023/05/05 08:23:31;;;;;;;5.30;3.20;;;20.10;99.90;;;;;;5011200;28;20108;-47
2023/05/05 08:25:57;;;;;;;5.50;3.33;;;20.20;99.90;;;;;;5011304;28;20041;-47
2023/05/05 08:28:23;;;;;;;4.53;2.60;;;20.20;99.90;;;;;;5011071;28;20038;-49
2023/05/05 08:30:49;;;;;;;4.28;2.40;;;20.00;99.90;;;;;;5010665;28;20026;-46
2023/05/05 08:33:15;;;;;;;6.03;3.00;;;20.00;99.90;;;;;;5011230;28;20029;-47
2023/05/05 08:35:44;;;;;;;7.63;3.72;;;19.90;99.90;;;;;;5011236;28;20034;-48
2023/05/05 08:38:10;;;;;;;;;;;20.00;99.90;;;;;;5011809;28;20033;-50
2023/05/05 08:40:38;;;;;;;7.68;3.35;;;20.10;99.90;;;;;;5010752;28;20281;-47
2023/05/05 08:43:04;;;;;;;6.75;3.40;;;20.10;99.90;;;;;;5010845;28;20030;-50
2023/05/05 08:45:31;;;;;;;5.70;2.95;;;20.10;99.90;;;;;;5011263;28;20062;-49
2023/05/05 08:47:59;;;;;;;4.88;3.25;;;20.00;99.90;;;;;;5011173;28;20112;-47
2023/05/05 08:50:26;;;;;;;4.97;2.65;;;19.90;99.90;;;;;;5010567;28;20053;-47
2023/05/05 08:53:09;;;;;;;5.50;3.10;;;20.00;99.90;;;;;;5011262;28;20022;-47
2023/05/05 08:56:00;;;;;;;6.47;2.90;;;20.20;99.90;;;;;;5010855;28;20053;-47
2023/05/05 08:58:26;;;;;;;6.30;3.15;;;20.50;99.90;;;;;;5010789;28;20030;-49
2023/05/05 09:00:54;;;;;;;6.38;3.75;;;20.90;99.90;;;;;;5010557;28;20485;-47
2023/05/05 09:03:20;;;;;;;6.47;3.55;;;20.90;99.90;;;;;;5010879;28;20025;-50
2023/05/05 09:05:46;;;;;;;6.32;3.30;;;21.00;99.90;;;;;;5010903;28;20061;-49
2023/05/05 09:08:12;;;;;;;6.32;3.60;;;21.40;99.90;;;;;;5009471;28;20042;-50
2023/05/05 09:10:42;;;;;;;7.30;3.72;;;21.40;99.90;;;;;;5010553;28;20033;-47
2023/05/05 09:13:08;;;;;;;8.43;4.20;;;21.00;99.90;;;;;;5012016;28;20104;-47
2023/05/05 09:15:34;;;;;;;7.90;4.25;;;21.20;99.90;;;;;;5013724;28;20080;-47
2023/05/05 09:18:00;;;;;;;7.88;3.53;;;21.30;99.80;;;;;;5014846;28;20033;-49
2023/05/05 09:20:34;;;;;;;6.30;3.80;;;21.50;99.90;;;;;;5014229;28;20034;-47
2023/05/05 09:23:08;;;;;;;7.68;4.10;;;21.70;99.80;;;;;;5013419;28;20038;-49
2023/05/05 09:25:33;;;;;;;8.50;4.32;;;21.40;99.50;;;;;;5014971;28;20056;-46
2023/05/05 09:28:09;;;;;;;6.60;3.20;;;21.50;99.90;;;;;;5014825;28;20029;-47
2023/05/05 09:30:35;;;;;;;6.95;3.00;;;21.50;99.90;;;;;;5014231;28;20078;-47
2023/05/05 09:33:01;;;;;;;5.97;3.13;;;21.70;99.20;;;;;;5014573;28;20524;-46
2023/05/05 09:35:27;;;;;;;5.55;2.30;;;21.80;99.00;;;;;;5014647;28;20425;-49
2023/05/05 09:37:53;;;;;;;6.10;2.60;;;21.90;99.90;;;;;;5014638;28;20034;-48
2023/05/05 09:40:20;;;;;;;8.38;3.00;;;22.10;98.70;;;;;;5014161;28;20034;-47
2023/05/05 09:42:46;;;;;;;4.82;2.63;;;22.20;97.90;;;;;;5014450;28;20025;-49
2023/05/05 09:45:18;;;;;;;5.25;3.10;;;22.40;97.60;;;;;;5014354;28;20470;-46
2023/05/05 09:47:47;;;;;;;4.05;2.40;;;22.60;97.40;;;;;;5012742;28;20061;-47
2023/05/05 09:50:17;;;;;;;4.10;2.25;;;22.60;96.40;;;;;;5013911;28;20116;-48
2023/05/05 09:52:56;;;;;;;3.58;2.05;;;22.70;96.40;;;;;;5014278;28;20434;-50
2023/05/05 09:55:23;;;;;;;3.88;2.33;;;22.70;96.80;;;;;;5014181;28;20037;-48
2023/05/05 09:57:49;;;;;;;3.00;2.05;;;22.50;97.10;;;;;;5013783;28;20530;-46
2023/05/05 10:00:15;;;;;;;2.88;1.95;;;22.60;95.80;;;;;;5013400;28;20046;-48
2023/05/05 10:02:41;;;;;;;3.85;2.15;;;22.40;95.80;;;;;;5013601;28;20077;-48
2023/05/05 10:05:17;;;;;;;3.38;1.67;;;22.50;96.00;;;;;;5013616;28;20034;-47
2023/05/05 10:07:45;;;;;;;3.50;1.88;;;22.60;96.10;;;;;;5013771;28;20117;-49
2023/05/05 10:10:15;;;;;;;2.75;1.63;;;22.70;95.20;;;;;;5013468;28;20540;-50
2023/05/05 10:12:43;;;;;;;4.38;2.15;;;22.60;95.90;;;;;;5013527;28;20110;-50
2023/05/05 10:15:10;;;;;;;4.10;1.73;;;22.70;96.20;;;;;;5013574;28;20032;-49
2023/05/05 10:17:46;;;;;;;2.78;1.85;;;22.90;95.30;;;;;;5013466;28;20076;-50
2023/05/05 10:20:14;;;;;;;3.58;1.88;;;23.10;96.00;;;;;;5013365;28;20026;-48
2023/05/05 10:22:49;;;;;;;4.30;2.30;;;23.20;96.20;;;;;;5013299;28;20085;-48
2023/05/05 10:25:18;;;;;;;3.70;2.08;;;23.00;95.50;;;;;;5012545;28;20468;-50
2023/05/05 10:27:49;;;;;;;4.63;2.30;;;23.20;95.70;;;;;;5013205;28;20556;-49
2023/05/05 10:30:35;;;;;;;3.30;2.13;;;23.10;95.40;;;;;;5013469;28;20101;-50
2023/05/05 10:33:14;;;;;;;3.28;1.98;;;23.20;95.70;;;;;;5013162;28;20053;-48
2023/05/05 10:35:43;;;;;;;3.50;1.60;;;23.30;95.00;;;;;;5013189;28;20033;-49
2023/05/05 10:38:11;;;;;;;3.70;2.17;;;23.20;95.50;;;;;;5013204;28;20037;-53
2023/05/05 10:40:47;;;;;;;3.65;2.28;;;23.50;95.10;;;;;;5011555;28;20037;-50
2023/05/05 10:43:13;;;;;;;3.58;1.95;;;22.90;94.50;;;;;;5013075;28;20491;-48
2023/05/05 10:45:40;;;;;;;3.05;1.80;;;23.00;95.40;;;;;;5012985;28;20116;-48
2023/05/05 10:48:13;;;;;;;3.67;2.10;;;22.90;95.70;;;;;;5012628;28;20054;-49
2023/05/05 10:50:48;;;;;;;4.25;2.10;;;22.60;94.90;;;;;;5012779;28;20101;-47
2023/05/05 10:53:35;;;;;;;4.22;2.35;;;22.40;94.60;;;;;;5012829;28;20030;-47
2023/05/05 10:56:15;;;;;;;3.92;1.80;;;22.00;95.30;;;;;;5013050;28;20057;-47
2023/05/05 10:58:41;;;;;;;3.55;2.00;;;22.10;96.90;;;;;;5013311;28;20029;-48
2023/05/05 11:01:08;;;;;;;3.63;2.25;;;22.00;95.60;;;;;;5012468;28;20545;-49
2023/05/05 11:03:34;;;;;;;4.70;2.10;;;21.90;95.90;;;;;;5012648;28;20041;-46
2023/05/05 11:06:03;;;;;;;4.20;2.30;;;21.80;96.70;;;;;;5012545;28;20042;-46
2023/05/05 11:08:29;;;;;;;;;;;21.90;95.20;;;;;;5013058;28;20032;-47
2023/05/05 11:10:55;;;;;;;3.15;1.90;;;22.00;95.60;;;;;;5012198;28;19909;-48
2023/05/05 11:13:21;;;;;;;3.38;1.90;;;22.10;95.40;;;;;;5012492;28;20026;-51
2023/05/05 11:15:48;;;;;;;6.22;2.25;;;22.00;96.00;;;;;;5012470;28;20617;-46
2023/05/05 11:18:36;;;;;;;4.55;2.13;;;21.80;95.20;;;;;;5012630;28;20446;-46
2023/05/05 11:21:03;;;;;;;2.65;1.77;;;21.90;96.00;;;;;;5012113;28;20034;-47
2023/05/05 11:23:29;;;;;;;3.58;1.90;;;22.00;95.80;;;;;;5012085;28;20040;-49
2023/05/05 11:25:56;;;;;;;4.28;1.90;;;21.80;95.50;;;;;;5012389;28;20493;-50
2023/05/05 11:28:29;;;;;;;4.35;2.30;;;21.50;96.50;;;;;;5012302;28;20084;-46
2023/05/05 11:30:55;;;;;;;5.32;2.47;;;21.30;97.60;;;;;;5011755;28;20050;-47
2023/05/05 11:33:32;;;;;;;5.78;1.90;;;21.20;97.10;;;;;;5012181;28;20053;-46
2023/05/05 11:36:00;;;;;;;6.43;2.78;;;21.20;97.00;;;;;;5012077;28;20030;-48
2023/05/05 11:38:38;;;;;;;7.03;2.50;;;21.00;97.90;;;;;;5012244;28;20034;-48
2023/05/05 11:41:31;;;;;;;4.00;2.13;;;20.70;98.70;;;;;;5011592;28;20072;-47
2023/05/05 11:44:16;;;;;;;4.45;2.22;;;20.40;98.90;;;;;;5011981;28;20405;-47
2023/05/05 11:46:51;;;;;;;5.57;3.28;;;20.30;99.90;;;;;;5011644;28;20478;-47
2023/05/05 11:49:33;;;;;;;5.10;2.40;;;20.20;99.90;;;;;;5011909;28;20080;-46
2023/05/05 11:52:01;;;;;;;4.28;2.20;;;20.20;99.90;;;;;;5011525;28;20036;-48
2023/05/05 11:54:27;;;;;;;4.13;2.30;;;20.10;99.90;;;;;;5011772;28;20084;-48
2023/05/05 11:56:54;;;;;;;5.63;2.60;;;20.00;99.90;;;;;;5011729;28;20793;-46
2023/05/05 11:59:20;;;;;;;3.85;2.25;;;20.00;99.90;;;;;;5011634;28;20044;-47
2023/05/05 12:01:46;;;;;;;6.38;3.28;;;20.00;99.90;;;;;;5011184;28;20474;-48
2023/05/05 12:04:13;;;;;;;4.63;3.03;;;19.80;99.90;;;;;;5011640;28;20045;-50
2023/05/05 12:06:39;;;;;;;4.65;1.90;;;19.30;99.90;;;;;;5011422;28;20128;-47
2023/05/05 12:09:15;;;;;;;3.08;1.50;;;18.60;99.90;;;;;;5011532;28;20036;-46
2023/05/05 12:11:58;;;;;;;3.17;1.70;;;18.20;99.90;;;;;;5011236;28;20025;-47
2023/05/05 12:14:24;;;;;;;4.18;1.90;;;17.90;99.90;;;;;;5011526;28;20033;-47
2023/05/05 12:17:04;;;;;;;4.90;1.85;;;17.70;99.90;;;;;;5011354;28;20025;-47
2023/05/05 12:19:32;;;;;;;3.88;1.75;;;17.60;99.90;;;;;;5011742;28;20496;-47
2023/05/05 12:22:01;;;;;;;4.32;1.55;;;17.50;99.90;;;;;;5010543;28;20037;-50
2023/05/05 12:24:29;;;;;;;3.42;2.00;;;17.40;99.90;;;;;;5010101;28;20046;-48
2023/05/05 12:27:05;;;;;;;3.22;1.75;;;17.30;99.90;;;;;;5011322;28;20128;-47
2023/05/05 12:29:31;;;;;;;4.30;2.08;;;17.30;99.90;;;;;;5011010;28;20030;-47
2023/05/05 12:31:58;;;;;;;4.10;1.70;;;17.30;99.90;;;;;;5010833;28;20402;-46
2023/05/05 12:34:25;;;;;;;4.03;1.92;;;17.30;99.90;;;;;;5011257;28;20029;-47
2023/05/05 12:36:51;;;;;;;3.67;1.38;;;17.50;99.90;;;;;;5011169;28;20475;-46
2023/05/05 12:39:16;;;;;;;3.67;1.80;;;17.50;99.90;;;;;;5011329;28;20083;-47
2023/05/05 12:41:42;;;;;;;4.47;1.75;;;17.70;99.90;;;;;;5010743;28;20084;-47
2023/05/05 12:44:08;;;;;;;2.97;1.42;;;17.80;99.90;;;;;;5011430;28;20029;-48
2023/05/05 12:46:44;;;;;;;4.60;1.40;;;18.00;99.90;;;;;;5011385;28;20029;-50
2023/05/05 12:49:10;;;;;;;3.63;1.40;;;18.20;99.90;;;;;;5010654;28;20034;-46
2023/05/05 12:51:36;;;;;;;2.53;1.20;;;18.50;99.90;;;;;;5010580;28;20085;-48
2023/05/05 12:54:09;;;;;;;1.75;1.02;;;18.70;99.90;;;;;;5011070;28;20105;-47